Time;durP1;ratioP1;P1;durP2;ratioP2;P2;SDS_P1;SDS_P2;PMS_P1;PMS_P2;Temp;Humidity;BMP_temperature;BMP_pressure;BME280_temperature;BME280_humidity;BME280_pressure;Samples;Min_cycle;Max_cycle;Signal;HPM_P1;HPM_P2
2023/08/01 00:01:24;;;;;;;10.88;9.88;;;;;;;15.72;100.00;99746.13;5009150;28;20508;-61
2023/08/01 00:03:49;;;;;;;11.75;10.40;;;;;;;15.73;100.00;99731.34;5008760;28;20334;-62
2023/08/01 00:06:14;;;;;;;10.98;9.63;;;;;;;15.72;100.00;99729.59;5009038;28;20495;-61
2023/08/01 00:08:40;;;;;;;14.63;10.73;;;;;;;15.71;100.00;99723.50;5009242;28;20026;-62
2023/08/01 00:11:05;;;;;;;12.25;10.63;;;;;;;15.71;100.00;99727.84;5008473;28;20026;-62
2023/08/01 00:13:30;;;;;;;14.63;10.32;;;;;;;15.70;100.00;99724.38;5009130;28;20030;-61
2023/08/01 00:15:56;;;;;;;10.88;9.77;;;;;;;15.69;100.00;99721.78;5008682;28;20025;-61
2023/08/01 00:18:21;;;;;;;11.02;9.60;;;;;;;15.69;100.00;99719.16;5008934;28;20033;-61
2023/08/01 00:20:46;;;;;;;11.27;9.43;;;;;;;15.67;100.00;99711.34;5008600;28;20448;-60
2023/08/01 00:23:11;;;;;;;10.05;9.13;;;;;;;15.66;100.00;99724.41;5008242;28;20033;-61
2023/08/01 00:25:37;;;;;;;10.63;9.55;;;;;;;15.63;100.00;99724.44;5008808;28;20079;-61
2023/08/01 00:28:02;;;;;;;12.20;9.02;;;;;;;15.61;100.00;99720.09;5008782;28;20053;-60
2023/08/01 00:30:27;;;;;;;10.82;9.73;;;;;;;15.63;100.00;99724.44;5008685;28;20018;-61
2023/08/01 00:32:53;;;;;;;11.32;9.70;;;;;;;15.61;100.00;99706.19;5007631;28;20033;-62
2023/08/01 00:35:18;;;;;;;9.02;7.97;;;;;;;15.60;100.00;99715.75;5008372;28;20378;-60
2023/08/01 00:37:43;;;;;;;10.52;9.43;;;;;;;15.59;100.00;99706.19;5008518;28;20061;-60
2023/08/01 00:40:09;;;;;;;11.88;8.32;;;;;;;15.57;100.00;99705.34;5008025;28;20116;-60
2023/08/01 00:42:37;;;;;;;9.82;8.55;;;;;;;15.56;100.00;99702.75;5007930;28;20192;-60
2023/08/01 00:45:03;;;;;;;9.63;8.73;;;;;;;15.55;100.00;99706.22;5008276;28;20072;-60
2023/08/01 00:47:28;;;;;;;9.82;8.50;;;;;;;15.55;100.00;99706.22;5008732;28;20490;-60
2023/08/01 00:49:54;;;;;;;12.13;8.95;;;;;;;15.53;100.00;99711.44;5007452;28;20022;-61
2023/08/01 00:52:19;;;;;;;12.18;9.25;;;;;;;15.52;100.00;99701.91;5007797;28;20040;-61
2023/08/01 00:54:44;;;;;;;10.02;9.13;;;;;;;15.50;100.00;99698.41;5006422;28;20042;-62
2023/08/01 00:57:10;;;;;;;9.65;8.77;;;;;;;15.48;100.00;99710.59;5007852;28;20386;-62
2023/08/01 00:59:35;;;;;;;11.57;9.52;;;;;;;15.46;100.00;99714.97;5007507;28;20503;-60
2023/08/01 01:02:01;;;;;;;11.27;8.40;;;;;;;15.45;100.00;99710.63;5008037;28;20473;-61
2023/08/01 01:04:26;;;;;;;9.45;8.55;;;;;;;15.41;100.00;99708.91;5007610;28;20204;-61
2023/08/01 01:06:59;;;;;;;9.68;8.25;;;;;;;15.40;100.00;99712.41;5008208;28;20034;-60
2023/08/01 01:09:28;;;;;;;10.70;8.60;;;;;;;15.38;100.00;99703.72;5007912;28;20145;-61
2023/08/01 01:11:53;;;;;;;13.40;9.20;;;;;;;15.33;100.00;99707.22;5007639;28;20124;-61
2023/08/01 01:14:19;;;;;;;11.32;8.50;;;;;;;15.31;100.00;99693.31;5007786;28;20097;-61
2023/08/01 01:16:44;;;;;;;10.05;8.27;;;;;;;15.28;100.00;99695.06;5008101;28;20030;-61
2023/08/01 01:19:09;;;;;;;9.65;8.30;;;;;;;15.25;100.00;99693.34;5007397;28;20410;-61
2023/08/01 01:21:37;;;;;;;10.25;9.13;;;;;;;15.24;100.00;99691.59;5008273;28;20326;-60
2023/08/01 01:24:07;;;;;;;15.35;9.68;;;;;;;15.25;100.00;99698.56;5007743;28;20068;-61
2023/08/01 01:26:33;;;;;;;11.80;9.18;;;;;;;15.22;100.00;99696.84;5007898;28;20378;-61
2023/08/01 01:29:00;;;;;;;10.23;8.60;;;;;;;15.21;100.00;99702.06;5007546;28;20030;-61
2023/08/01 01:31:26;;;;;;;13.48;8.48;;;;;;;15.18;100.00;99697.72;5007986;28;20466;-61
2023/08/01 01:33:51;;;;;;;9.55;7.63;;;;;;;15.17;100.00;99697.72;5006898;28;20105;-61
2023/08/01 01:36:17;;;;;;;9.50;7.70;;;;;;;15.13;100.00;99695.13;5008071;28;20091;-60
2023/08/01 01:38:42;;;;;;;12.55;8.00;;;;;;;15.11;100.00;99696.88;5007531;28;20031;-60
2023/08/01 01:41:07;;;;;;;8.68;7.20;;;;;;;15.08;100.00;99694.31;5006724;28;20522;-62
2023/08/01 01:43:32;;;;;;;11.32;7.97;;;;;;;15.05;100.00;99686.50;5007150;28;20021;-61
2023/08/01 01:45:58;;;;;;;10.02;7.78;;;;;;;15.03;100.00;99685.63;5007249;28;20025;-61
2023/08/01 01:48:23;;;;;;;9.77;7.43;;;;;;;15.02;100.00;99691.72;5007409;28;20041;-62
2023/08/01 01:50:48;;;;;;;12.73;7.65;;;;;;;14.99;100.00;99687.38;5007315;28;20117;-62
2023/08/01 01:53:14;;;;;;;11.77;7.80;;;;;;;14.99;100.00;99681.28;5006950;28;20025;-61
2023/08/01 01:55:40;;;;;;;10.40;7.10;;;;;;;14.97;100.00;99686.53;5007593;28;20474;-60
2023/08/01 01:58:06;;;;;;;9.88;7.53;;;;;;;14.96;100.00;99691.75;5006929;28;20045;-61
2023/08/01 02:00:31;;;;;;;9.73;7.40;;;;;;;14.92;100.00;99692.63;5007473;28;20073;-62
2023/08/01 02:02:56;;;;;;;10.68;8.48;;;;;;;14.88;100.00;99690.03;5011164;28;20470;-61
2023/08/01 02:05:21;;;;;;;10.95;7.68;;;;;;;14.86;100.00;99691.78;5011225;28;20030;-61
2023/08/01 02:07:47;;;;;;;10.05;7.35;;;;;;;14.84;100.00;99696.13;5011051;28;20367;-61
2023/08/01 02:10:12;;;;;;;10.10;7.72;;;;;;;14.83;100.00;99686.59;5011185;28;20066;-61
2023/08/01 02:12:37;;;;;;;11.65;8.43;;;;;;;14.81;100.00;99682.22;5011391;28;20030;-61
2023/08/01 02:15:03;;;;;;;10.70;8.32;;;;;;;14.79;100.00;99683.97;5011635;28;20433;-61
2023/08/01 02:17:28;;;;;;;12.90;8.52;;;;;;;14.73;100.00;99674.44;5010816;28;20021;-61
2023/08/01 02:19:53;;;;;;;15.55;8.10;;;;;;;14.73;100.00;99682.25;5010604;28;20049;-61
2023/08/01 02:22:19;;;;;;;13.65;9.73;;;;;;;14.69;100.00;99694.44;5010771;28;20021;-61
2023/08/01 02:24:44;;;;;;;12.48;9.40;;;;;;;14.68;100.00;99686.63;5010789;28;20025;-61
2023/08/01 02:27:10;;;;;;;14.82;9.75;;;;;;;14.65;100.00;99695.31;5010456;28;20014;-62
2023/08/01 02:29:35;;;;;;;12.00;9.63;;;;;;;14.58;100.00;99684.03;5011007;28;20041;-60
2023/08/01 02:32:00;;;;;;;14.50;10.32;;;;;;;14.55;100.00;99696.22;5010609;28;20022;-60
2023/08/01 02:34:25;;;;;;;11.55;10.20;;;;;;;14.53;100.00;99686.63;5010798;28;20504;-61
2023/08/01 02:36:51;;;;;;;17.48;10.82;;;;;;;14.50;100.00;99694.47;5011060;28;20034;-61
2023/08/01 02:39:17;;;;;;;14.90;12.55;;;;;;;14.48;100.00;99695.38;5011483;28;20351;-61
2023/08/01 02:41:42;;;;;;;17.63;12.85;;;;;;;14.46;100.00;99699.72;5010259;28;21167;-61
2023/08/01 02:44:07;;;;;;;19.52;12.73;;;;;;;14.45;100.00;99700.56;5011310;28;20173;-60
2023/08/01 02:46:32;;;;;;;19.63;14.13;;;;;;;14.45;100.00;99700.56;5010447;28;20034;-60
2023/08/01 02:48:58;;;;;;;20.52;13.55;;;;;;;14.45;100.00;99705.78;5010521;28;20026;-60
2023/08/01 02:51:23;;;;;;;19.40;13.95;;;;;;;14.46;100.00;99707.53;5009847;28;20030;-60
2023/08/01 02:53:48;;;;;;;23.10;13.50;;;;;;;14.48;100.00;99713.63;5010310;28;20067;-61
2023/08/01 02:56:14;;;;;;;15.95;13.63;;;;;;;14.48;100.00;99716.22;5010067;28;20030;-61
2023/08/01 02:58:39;;;;;;;19.35;13.40;;;;;;;14.49;100.00;99713.59;5010258;28;20018;-62
2023/08/01 03:01:09;;;;;;;23.17;13.73;;;;;;;14.51;100.00;99706.66;5010412;28;20422;-60
2023/08/01 03:03:35;;;;;;;19.90;14.25;;;;;;;14.51;100.00;99711.00;5009917;28;20036;-61
2023/08/01 03:06:01;;;;;;;22.27;14.60;;;;;;;14.51;100.00;99700.56;5010118;28;20489;-61
2023/08/01 03:08:26;;;;;;;22.10;14.55;;;;;;;14.51;100.00;99697.97;5010273;28;20028;-61
2023/08/01 03:10:52;;;;;;;20.58;15.32;;;;;;;14.48;100.00;99696.22;5010189;28;20482;-61
2023/08/01 03:13:17;;;;;;;19.58;15.57;;;;;;;14.48;100.00;99690.16;5009860;28;20053;-61
2023/08/01 03:15:42;;;;;;;20.75;16.05;;;;;;;14.44;100.00;99691.03;5009640;28;20034;-61
2023/08/01 03:18:07;;;;;;;22.52;16.40;;;;;;;14.38;100.00;99690.16;5009924;28;20065;-61
2023/08/01 03:20:33;;;;;;;21.27;16.75;;;;;;;14.36;100.00;99701.44;5009933;28;20525;-60
2023/08/01 03:22:59;;;;;;;20.20;16.13;;;;;;;14.36;100.00;99688.41;5010274;28;20037;-61
2023/08/01 03:25:24;;;;;;;19.85;16.65;;;;;;;14.37;100.00;99682.34;5009432;28;20032;-61
2023/08/01 03:27:49;;;;;;;21.88;16.73;;;;;;;14.38;100.00;99692.78;5009794;28;20029;-61
2023/08/01 03:30:14;;;;;;;26.90;17.38;;;;;;;14.38;100.00;99700.59;5009533;28;20030;-61
2023/08/01 03:32:40;;;;;;;22.52;18.15;;;;;;;14.37;100.00;99698.84;5010012;28;20026;-61
2023/08/01 03:35:06;;;;;;;24.17;18.55;;;;;;;14.38;100.00;99695.38;5010195;28;20021;-61
2023/08/01 03:37:31;;;;;;;24.30;18.73;;;;;;;14.41;100.00;99695.38;5008990;28;20021;-61
2023/08/01 03:39:56;;;;;;;23.63;19.63;;;;;;;14.39;100.00;99702.31;5009243;28;20040;-60
2023/08/01 03:42:21;;;;;;;28.25;19.77;;;;;;;14.40;100.00;99708.41;5009690;28;20022;-60
2023/08/01 03:44:47;;;;;;;26.52;20.23;;;;;;;14.40;100.00;99706.69;5009640;28;20515;-60
2023/08/01 03:47:12;;;;;;;31.65;22.60;;;;;;;14.40;100.00;99709.28;5009540;28;20029;-61
2023/08/01 03:49:38;;;;;;;24.50;21.00;;;;;;;14.39;100.00;99710.13;5009346;28;20026;-61
2023/08/01 03:52:04;;;;;;;29.13;22.33;;;;;;;14.40;100.00;99706.69;5009416;28;20057;-61
2023/08/01 03:54:30;;;;;;;31.95;21.98;;;;;;;14.39;100.00;99704.91;5008948;28;20022;-60
2023/08/01 03:56:55;;;;;;;27.88;23.13;;;;;;;14.40;100.00;99709.28;5008800;28;20029;-61
2023/08/01 03:59:20;;;;;;;28.75;22.75;;;;;;;14.41;100.00;99705.78;5008942;28;20041;-61
2023/08/01 04:01:45;;;;;;;31.92;23.73;;;;;;;14.42;100.00;99714.47;5009548;28;20053;-61
2023/08/01 04:04:11;;;;;;;31.35;23.52;;;;;;;14.40;100.00;99709.28;5008326;28;20025;-60
2023/08/01 04:06:36;;;;;;;30.48;23.55;;;;;;;14.39;100.00;99717.09;5009460;28;20022;-60
2023/08/01 04:09:02;;;;;;;28.00;24.23;;;;;;;14.39;100.00;99706.69;5008986;28;20037;-60
2023/08/01 04:11:29;;;;;;;29.95;23.48;;;;;;;14.39;100.00;99704.91;5008921;28;20025;-62
2023/08/01 04:13:55;;;;;;;29.60;24.30;;;;;;;14.38;100.00;99704.94;5008012;28;20021;-60
2023/08/01 04:16:20;;;;;;;34.28;24.65;;;;;;;14.37;100.00;99705.81;5008726;28;20029;-62
2023/08/01 04:18:45;;;;;;;34.60;23.35;;;;;;;14.38;100.00;99704.94;5008538;28;20565;-60
2023/08/01 04:21:14;;;;;;;29.00;23.40;;;;;;;14.38;100.00;99704.94;5008474;28;20529;-61
2023/08/01 04:23:40;;;;;;;31.85;24.55;;;;;;;14.38;100.00;99707.53;5008357;28;20050;-61
2023/08/01 04:26:08;;;;;;;28.73;21.90;;;;;;;14.39;100.00;99707.53;5008292;28;20655;-60
2023/08/01 04:28:34;;;;;;;32.08;22.45;;;;;;;14.41;100.00;99704.91;5008645;28;20576;-61
2023/08/01 04:31:00;;;;;;;30.55;23.77;;;;;;;14.41;100.00;99700.56;5008610;28;20030;-61
2023/08/01 04:33:26;;;;;;;30.48;24.15;;;;;;;14.43;100.00;99703.19;5008393;28;20072;-61
2023/08/01 04:35:51;;;;;;;31.77;24.08;;;;;;;14.45;100.00;99700.56;5008465;28;20469;-61
2023/08/01 04:38:16;;;;;;;33.72;24.67;;;;;;;14.43;100.00;99702.34;5009121;28;20013;-61
2023/08/01 04:40:42;;;;;;;31.40;23.63;;;;;;;14.45;100.00;99711.00;5008708;28;20041;-62
2023/08/01 04:43:07;;;;;;;32.35;24.10;;;;;;;14.46;100.00;99712.75;5008134;28;20499;-61
2023/08/01 04:45:32;;;;;;;33.08;24.83;;;;;;;14.45;100.00;99716.19;5008262;28;20076;-61
2023/08/01 04:47:58;;;;;;;28.17;22.70;;;;;;;14.46;100.00;99715.34;5008238;28;20022;-61
2023/08/01 04:50:23;;;;;;;29.05;21.75;;;;;;;14.49;100.00;99712.72;5007823;28;20021;-61
2023/08/01 04:52:49;;;;;;;30.63;23.42;;;;;;;14.50;100.00;99717.06;5007911;28;20092;-61
2023/08/01 04:55:14;;;;;;;35.03;24.17;;;;;;;14.52;100.00;99730.97;5008287;28;20101;-61
2023/08/01 04:57:39;;;;;;;29.08;23.35;;;;;;;14.57;100.00;99730.97;5008055;28;20486;-61
2023/08/01 05:00:05;;;;;;;33.00;23.35;;;;;;;14.58;100.00;99733.56;5008139;28;20042;-61
2023/08/01 05:02:31;;;;;;;31.08;22.00;;;;;;;14.57;100.00;99731.81;5008199;28;20557;-62
2023/08/01 05:04:56;;;;;;;27.15;22.25;;;;;;;14.57;100.00;99731.81;5008014;28;20504;-62
2023/08/01 05:07:21;;;;;;;31.75;23.60;;;;;;;14.58;100.00;99730.97;5008100;28;20512;-61
2023/08/01 05:09:47;;;;;;;32.00;21.83;;;;;;;14.58;100.00;99728.34;5008386;28;20032;-61
2023/08/01 05:12:12;;;;;;;33.72;22.48;;;;;;;14.58;100.00;99728.34;5007876;28;20046;-62
2023/08/01 05:14:37;;;;;;;27.38;22.38;;;;;;;14.58;100.00;99733.56;5001713;28;20165;-61
2023/08/01 05:17:03;;;;;;;30.10;23.40;;;;;;;14.57;100.00;99731.81;4988195;28;20076;-61
2023/08/01 05:19:28;;;;;;;29.50;22.15;;;;;;;14.56;100.00;99730.09;5006900;28;20024;-62
2023/08/01 05:21:54;;;;;;;27.38;22.27;;;;;;;14.58;100.00;99728.34;5008118;28;20088;-61
2023/08/01 05:24:20;;;;;;;34.85;22.30;;;;;;;14.55;100.00;99735.31;5007636;28;20029;-61
2023/08/01 05:26:45;;;;;;;27.17;20.67;;;;;;;14.55;100.00;99738.78;5007458;28;20026;-60
2023/08/01 05:29:10;;;;;;;28.42;21.73;;;;;;;14.56;100.00;99737.03;5007457;28;20029;-60
2023/08/01 05:31:36;;;;;;;29.20;22.23;;;;;;;14.55;100.00;99744.00;5007399;28;20034;-61
2023/08/01 05:34:01;;;;;;;26.58;21.13;;;;;;;14.53;100.00;99736.16;5008022;28;20026;-62
2023/08/01 05:36:26;;;;;;;22.45;19.63;;;;;;;14.49;100.00;99734.47;5006885;28;20025;-61
2023/08/01 05:38:51;;;;;;;28.13;20.85;;;;;;;14.49;100.00;99733.56;5007836;28;20033;-61
2023/08/01 05:41:17;;;;;;;26.77;20.60;;;;;;;14.48;100.00;99742.28;5007890;28;20026;-61
2023/08/01 05:43:42;;;;;;;28.05;21.15;;;;;;;14.46;100.00;99749.22;5007813;28;20490;-62
2023/08/01 05:46:07;;;;;;;27.10;20.98;;;;;;;14.48;100.00;99742.28;5008066;28;20030;-61
2023/08/01 05:48:33;;;;;;;26.20;20.15;;;;;;;14.52;100.00;99739.66;5003714;28;20030;-60
2023/08/01 05:50:58;;;;;;;28.48;20.27;;;;;;;14.60;100.00;99742.25;5007693;28;20041;-61
2023/08/01 05:53:23;;;;;;;25.35;19.50;;;;;;;14.72;100.00;99740.47;5007576;28;20025;-62
2023/08/01 05:55:49;;;;;;;24.95;20.45;;;;;;;14.72;100.00;99735.25;5007479;28;20030;-61
2023/08/01 05:58:15;;;;;;;24.85;18.85;;;;;;;14.85;100.00;99744.84;5002931;28;20113;-60
2023/08/01 06:00:41;;;;;;;24.50;18.33;;;;;;;14.92;100.00;99748.28;4992339;28;20520;-61
2023/08/01 06:03:06;;;;;;;27.58;19.65;;;;;;;14.98;100.00;99748.28;4993530;28;20030;-61
2023/08/01 06:05:31;;;;;;;24.88;19.80;;;;;;;15.04;100.00;99747.34;4995758;28;20513;-61
2023/08/01 06:07:56;;;;;;;22.55;17.20;;;;;;;15.09;100.00;99758.63;4993398;28;20014;-61
2023/08/01 06:10:22;;;;;;;27.42;18.25;;;;;;;15.11;100.00;99754.28;4995282;28;20029;-62
2023/08/01 06:12:47;;;;;;;23.65;17.55;;;;;;;15.15;100.00;99746.47;4988458;28;20034;-61
2023/08/01 06:15:12;;;;;;;27.40;17.95;;;;;;;15.19;100.00;99750.78;4994679;28;20060;-61
2023/08/01 06:17:38;;;;;;;24.85;17.33;;;;;;;15.19;100.00;99753.38;5005671;28;20475;-61
2023/08/01 06:20:04;;;;;;;24.83;17.67;;;;;;;15.22;100.00;99761.19;5003212;28;20462;-61
2023/08/01 06:22:30;;;;;;;22.80;15.75;;;;;;;15.27;100.00;99769.03;5000556;28;20389;-61
2023/08/01 06:24:55;;;;;;;20.17;15.68;;;;;;;15.34;100.00;99761.13;5006972;28;20081;-60
2023/08/01 06:27:21;;;;;;;20.83;15.43;;;;;;;15.43;100.00;99764.59;5007017;28;20492;-60
2023/08/01 06:29:46;;;;;;;20.58;14.50;;;;;;;15.46;100.00;99769.78;5004366;28;20025;-60
2023/08/01 06:32:11;;;;;;;19.48;14.75;;;;;;;15.48;100.00;99768.91;4996209;28;20036;-60
2023/08/01 06:34:36;;;;;;;20.80;14.68;;;;;;;15.52;100.00;99764.53;5006944;28;20375;-61
2023/08/01 06:37:03;;;;;;;19.75;15.05;;;;;;;15.55;100.00;99767.13;5007290;28;20261;-60
2023/08/01 06:39:29;;;;;;;20.63;15.25;;;;;;;15.58;100.00;99764.50;5007488;28;20371;-62
2023/08/01 06:41:54;;;;;;;21.85;15.20;;;;;;;15.61;100.00;99774.06;5007446;28;20545;-61
2023/08/01 06:44:19;;;;;;;19.50;15.77;;;;;;;15.59;100.00;99771.47;5006045;28;20038;-61
2023/08/01 06:46:45;;;;;;;18.85;16.40;;;;;;;15.65;100.00;99774.91;5007592;28;20080;-61
2023/08/01 06:49:10;;;;;;;18.75;15.48;;;;;;;15.72;100.00;99772.25;5010961;28;20088;-61
2023/08/01 06:51:35;;;;;;;17.92;15.55;;;;;;;15.81;100.00;99779.16;5011415;28;20036;-63
2023/08/01 06:54:00;;;;;;;18.10;14.57;;;;;;;15.93;100.00;99779.94;5009050;28;20050;-62
2023/08/01 06:56:26;;;;;;;20.55;14.00;;;;;;;16.08;100.00;99779.84;5008938;28;20018;-61
2023/08/01 06:58:51;;;;;;;17.70;13.77;;;;;;;16.29;100.00;99782.31;5008648;28;20041;-62
2023/08/01 07:01:16;;;;;;;20.05;13.02;;;;;;;16.42;100.00;99783.09;5007853;28;20030;-61
2023/08/01 07:03:41;;;;;;;15.23;12.68;;;;;;;16.51;100.00;99792.59;5008955;28;20053;-61
2023/08/01 07:06:07;;;;;;;14.93;11.27;;;;;;;16.64;100.00;99793.34;5008718;28;20044;-61
2023/08/01 07:08:32;;;;;;;13.27;9.55;;;;;;;16.71;100.00;99795.03;5009542;28;20030;-61
2023/08/01 07:10:59;;;;;;;12.60;9.93;;;;;;;16.74;100.00;99800.22;5009613;28;20522;-61
2023/08/01 07:13:25;;;;;;;13.45;10.07;;;;;;;16.61;100.00;99788.13;5007952;28;20079;-61
2023/08/01 07:15:50;;;;;;;13.52;9.02;;;;;;;16.63;100.00;99802.06;5008570;28;20025;-60
2023/08/01 07:18:16;;;;;;;11.77;9.45;;;;;;;16.78;100.00;99796.66;5010634;28;20512;-62
2023/08/01 07:20:41;;;;;;;14.90;9.30;;;;;;;16.93;100.00;99802.63;4997965;28;20120;-61
2023/08/01 07:23:07;;;;;;;10.85;8.60;;;;;;;17.04;100.00;99800.75;5009759;28;20406;-60
2023/08/01 07:25:32;;;;;;;12.15;8.32;;;;;;;17.12;100.00;99792.88;5000705;28;20033;-62
2023/08/01 07:27:57;;;;;;;10.88;7.85;;;;;;;17.23;100.00;99791.84;4997192;28;20022;-61
2023/08/01 07:30:23;;;;;;;9.35;7.10;;;;;;;17.39;100.00;99784.69;4997553;28;20135;-61
2023/08/01 07:32:48;;;;;;;12.63;7.20;;;;;;;17.59;100.00;99786.16;4996667;28;20037;-62
2023/08/01 07:35:13;;;;;;;7.55;5.68;;;;;;;17.70;100.00;99797.34;4996803;28;20053;-63
2023/08/01 07:37:39;;;;;;;11.60;7.25;;;;;;;17.71;100.00;99801.69;5009630;28;20022;-61
2023/08/01 07:40:06;;;;;;;7.70;5.65;;;;;;;17.67;100.00;99800.00;5003310;28;20512;-61
2023/08/01 07:42:32;;;;;;;8.63;5.90;;;;;;;17.58;100.00;99802.75;5006940;28;20398;-61
2023/08/01 07:44:57;;;;;;;7.18;5.45;;;;;;;17.56;100.00;99797.53;4992857;28;20512;-61
2023/08/01 07:47:23;;;;;;;8.45;5.50;;;;;;;17.60;100.00;99801.84;4995650;28;20044;-62
2023/08/01 07:49:49;;;;;;;9.00;6.07;;;;;;;17.71;100.00;99812.19;5002404;28;21197;-62
2023/08/01 07:52:15;;;;;;;11.10;6.32;;;;;;;17.66;100.00;99808.75;5005724;28;20028;-62
2023/08/01 07:54:40;;;;;;;9.93;6.05;;;;;;;17.62;100.00;99814.91;4998583;28;20110;-60
2023/08/01 07:57:05;;;;;;;8.65;5.63;;;;;;;17.65;100.00;99809.63;4995252;28;20022;-61
2023/08/01 07:59:31;;;;;;;10.80;5.93;;;;;;;17.76;100.00;99807.75;4993902;28;20042;-61
2023/08/01 08:01:56;;;;;;;7.20;4.90;;;;;;;17.99;100.00;99808.25;5001331;28;20026;-62
2023/08/01 08:04:21;;;;;;;6.88;4.57;;;;;;;18.25;100.00;99817.53;5006128;28;20065;-61
2023/08/01 08:06:47;;;;;;;6.45;4.35;;;;;;;18.41;100.00;99805.03;5007256;28;20032;-61
2023/08/01 08:09:12;;;;;;;10.00;4.20;;;;;;;18.71;100.00;99804.50;4995895;28;20045;-62
2023/08/01 08:11:37;;;;;;;6.15;3.35;;;;;;;18.79;100.00;99814.84;5007776;28;20030;-62
2023/08/01 08:14:02;;;;;;;6.53;3.83;;;;;;;18.74;100.00;99811.47;5002511;28;20471;-62
2023/08/01 08:16:28;;;;;;;5.97;3.70;;;;;;;18.40;100.00;99819.03;5001618;28;20377;-61
2023/08/01 08:18:53;;;;;;;8.20;4.10;;;;;;;18.50;100.00;99819.72;4997689;28;20052;-62
2023/08/01 08:21:18;;;;;;;8.35;3.80;;;;;;;18.62;100.00;99823.88;5002861;28;20120;-61
2023/08/01 08:23:44;;;;;;;6.32;3.50;;;;;;;18.85;100.00;99822.63;5001502;28;20516;-61
2023/08/01 08:26:09;;;;;;;7.78;3.35;;;;;;;19.12;100.00;99823.03;5004928;28;20036;-62
2023/08/01 08:28:34;;;;;;;7.57;3.50;;;;;;;19.37;100.00;99821.66;5000396;28;20029;-61
2023/08/01 08:31:02;;;;;;;6.25;3.30;;;;;;;19.42;100.00;99825.91;5003604;28;20026;-61
2023/08/01 08:33:27;;;;;;;6.55;3.97;;;;;;;19.44;100.00;99823.25;4998380;28;20080;-61
2023/08/01 08:35:53;;;;;;;7.53;3.47;;;;;;;19.33;100.00;99823.47;5001845;28;20025;-61
2023/08/01 08:38:19;;;;;;;7.05;4.22;;;;;;;19.21;100.00;99827.22;4997760;28;20018;-62
2023/08/01 08:40:55;;;;;;;6.60;3.45;;;;;;;19.19;100.00;99834.25;5002051;28;20064;-61
2023/08/01 08:43:21;;;;;;;7.80;4.28;;;;;;;19.16;100.00;99832.56;4999467;28;20113;-61
2023/08/01 08:45:48;;;;;;;6.72;3.30;;;;;;;19.03;100.00;99831.88;4988548;28;20116;-61
2023/08/01 08:48:18;;;;;;;6.43;3.65;;;;;;;18.92;100.00;99842.63;4991866;28;20029;-61
2023/08/01 08:50:45;;;;;;;7.60;5.22;;;;;;;18.73;100.00;99847.31;5007597;28;20030;-61
2023/08/01 08:53:12;;;;;;;8.63;4.72;;;;;;;18.53;100.00;99847.69;5006767;28;20382;-63
2023/08/01 08:55:39;;;;;;;8.05;5.32;;;;;;;18.35;100.00;99852.31;5008712;28;20026;-61
2023/08/01 08:58:04;;;;;;;8.10;3.90;;;;;;;18.08;100.00;99860.56;5005938;28;20041;-62
2023/08/01 09:00:30;;;;;;;7.35;4.63;;;;;;;17.79;100.00;99863.59;5007157;28;20077;-62
2023/08/01 09:02:55;;;;;;;8.93;3.78;;;;;;;17.55;100.00;99871.75;5003604;28;20076;-61
2023/08/01 09:05:26;;;;;;;8.98;2.63;;;;;;;17.33;100.00;99872.00;5004740;28;20026;-62
2023/08/01 09:07:54;;;;;;;5.88;1.58;;;;;;;17.09;100.00;99852.19;5003840;28;20052;-62
2023/08/01 09:10:20;;;;;;;4.88;1.45;;;;;;;16.91;100.00;99856.72;5002649;28;20022;-61
2023/08/01 09:12:45;;;;;;;2.58;0.95;;;;;;;16.85;100.00;99862.00;5003978;28;20029;-61
2023/08/01 09:15:12;;;;;;;4.00;1.88;;;;;;;16.71;100.00;99862.16;5001974;28;20032;-61
2023/08/01 09:17:48;;;;;;;5.57;2.70;;;;;;;16.71;100.00;99852.56;5005942;28;20014;-63
2023/08/01 09:20:13;;;;;;;6.78;2.88;;;;;;;16.72;100.00;99849.06;5002099;28;20480;-62
2023/08/01 09:22:46;;;;;;;5.10;2.47;;;;;;;16.66;100.00;99851.72;4997277;28;20038;-62
2023/08/01 09:25:12;;;;;;;4.63;2.50;;;;;;;16.78;100.00;99862.06;5002262;28;20116;-61
2023/08/01 09:27:38;;;;;;;6.78;2.78;;;;;;;16.79;100.00;99855.97;5007469;28;20022;-61
2023/08/01 09:30:13;;;;;;;6.35;2.88;;;;;;;16.87;100.00;99860.25;5007732;28;20022;-61
2023/08/01 09:32:39;;;;;;;5.22;2.65;;;;;;;16.92;100.00;99866.31;4997837;28;20049;-61
2023/08/01 09:35:04;;;;;;;5.28;3.20;;;;;;;16.93;100.00;99868.03;5004075;28;20481;-61
2023/08/01 09:37:41;;;;;;;7.43;3.10;;;;;;;16.92;100.00;99866.31;4996741;28;20481;-62
2023/08/01 09:40:08;;;;;;;6.82;3.20;;;;;;;16.89;100.00;99876.81;4998244;28;20026;-61
2023/08/01 09:42:41;;;;;;;5.57;3.10;;;;;;;16.86;100.00;99882.91;4998667;28;20539;-63
2023/08/01 09:45:17;;;;;;;8.20;3.30;;;;;;;16.80;100.00;99876.00;5001882;28;20033;-61
2023/08/01 09:47:43;;;;;;;4.18;1.90;;;;;;;16.71;100.00;99878.72;4998772;28;20033;-62
2023/08/01 09:50:20;;;;;;;3.45;2.13;;;;;;;16.68;100.00;99883.94;5006728;28;20057;-62
2023/08/01 09:52:52;;;;;;;6.60;2.40;;;;;;;16.59;100.00;99895.34;4994413;28;20419;-62
2023/08/01 09:55:19;;;;;;;6.40;2.60;;;;;;;16.48;100.00;99897.22;5007464;28;20331;-61
2023/08/01 09:57:48;;;;;;;5.60;2.35;;;;;;;16.38;100.00;99886.81;5006214;28;20522;-61
2023/08/01 10:00:14;;;;;;;7.57;2.72;;;;;;;16.25;100.00;99875.56;5005490;28;20060;-61
2023/08/01 10:02:43;;;;;;;6.20;2.42;;;;;;;16.19;100.00;99884.31;5006676;28;20026;-61
2023/08/01 10:05:09;;;;;;;5.93;2.42;;;;;;;16.13;100.00;99886.09;5007498;28;20449;-62
2023/08/01 11:23:53;;;;;;;8.93;3.70;;;;;;;17.77;100.00;99913.41;4282707;28;22114;-62
2023/08/01 11:26:18;;;;;;;7.57;3.50;;;;;;;17.74;100.00;99919.53;5009993;28;20131;-62
2023/08/01 11:28:45;;;;;;;5.70;2.72;;;;;;;17.72;100.00;99926.53;5018342;28;20116;-61
2023/08/01 11:31:12;;;;;;;10.23;3.13;;;;;;;17.70;100.00;99927.47;5013871;28;20028;-61
2023/08/01 11:33:37;;;;;;;7.28;2.90;;;;;;;17.67;100.00;99933.59;5011714;28;20540;-61
2023/08/01 11:36:04;;;;;;;6.10;2.97;;;;;;;17.61;100.00;99938.91;5009462;28;20117;-62
2023/08/01 11:38:30;;;;;;;8.65;2.83;;;;;;;17.62;100.00;99935.41;5001725;28;20032;-62
2023/08/01 11:40:57;;;;;;;9.60;3.58;;;;;;;17.58;100.00;99938.94;5005171;28;20081;-61
2023/08/01 11:43:23;;;;;;;7.45;3.38;;;;;;;17.54;100.00;99940.72;4989096;28;20026;-61
2023/08/01 11:45:55;;;;;;;7.72;2.83;;;;;;;17.54;100.00;99948.56;5005108;28;20622;-62
2023/08/01 11:48:23;;;;;;;7.40;2.63;;;;;;;17.58;100.00;99952.03;5010143;28;20030;-61
2023/08/01 11:50:48;;;;;;;6.25;2.90;;;;;;;17.56;100.00;99940.72;5005000;28;20034;-63
2023/08/01 11:53:21;;;;;;;7.38;2.60;;;;;;;17.61;100.00;99952.03;5006543;28;20036;-61
2023/08/01 11:55:47;;;;;;;7.68;2.58;;;;;;;17.74;100.00;99948.34;5004338;28;20029;-61
2023/08/01 11:58:14;;;;;;;7.05;2.65;;;;;;;17.87;100.00;99956.06;5007015;28;20040;-61
2023/08/01 12:00:39;;;;;;;9.23;2.40;;;;;;;18.04;100.00;99950.63;5007511;28;20036;-62
2023/08/01 12:03:07;;;;;;;7.47;2.42;;;;;;;18.35;100.00;99952.84;5007977;28;20397;-63
2023/08/01 12:05:32;;;;;;;7.68;2.00;;;;;;;18.63;100.00;99943.69;5006822;28;20058;-61
2023/08/01 12:08:11;;;;;;;6.90;1.98;;;;;;;18.84;100.00;99952.09;5009400;28;20594;-62
2023/08/01 12:10:38;;;;;;;5.18;1.85;;;;;;;19.09;100.00;99959.53;4995176;28;20033;-63
2023/08/01 12:13:03;;;;;;;6.50;2.35;;;;;;;19.30;100.00;99962.72;5005699;28;20029;-62
2023/08/01 12:15:28;;;;;;;4.18;1.40;;;;;;;19.37;100.00;99964.34;5005419;28;20063;-62
2023/08/01 12:17:53;;;;;;;6.47;2.10;;;;;;;19.35;100.00;99960.88;5005921;28;20026;-61
2023/08/01 12:20:19;;;;;;;6.88;1.92;;;;;;;19.25;100.00;99964.56;5005345;28;20065;-62
2023/08/01 12:22:44;;;;;;;4.65;2.13;;;;;;;19.13;100.00;99963.91;5006356;28;20025;-61
2023/08/01 12:25:09;;;;;;;6.03;2.35;;;;;;;19.04;100.00;99967.50;5018946;28;20042;-62
2023/08/01 12:27:34;;;;;;;4.93;2.30;;;;;;;19.05;100.00;99965.75;5027876;28;20474;-62